Time;durP1;ratioP1;P1;durP2;ratioP2;P2;SDS_P1;SDS_P2;PMS_P1;PMS_P2;Temp;Humidity;BMP_temperature;BMP_pressure;BME280_temperature;BME280_humidity;BME280_pressure;Samples;Min_cycle;Max_cycle;Signal;HPM_P1;HPM_P2
2023/05/22 00:01:59;;;;;;;;;;;;;;;16.83;100.00;101480.28;5090503;28;20107;-37
2023/05/22 00:04:28;;;;;;;10.13;8.80;;;;;;;16.67;100.00;101474.63;5089919;28;19942;-36
2023/05/22 00:06:55;;;;;;;10.45;8.95;;;;;;;16.50;100.00;101464.88;5090130;28;20105;-36
2023/05/22 00:09:20;;;;;;;10.07;9.00;;;;;;;16.48;100.00;101478.75;5089601;28;20028;-36
2023/05/22 00:11:46;;;;;;;;;;;;;;;16.66;100.00;101475.69;5082056;28;20090;-36
2023/05/22 00:14:12;;;;;;;10.07;8.50;;;;;;;16.56;100.00;101475.59;5076469;28;19962;-36
2023/05/22 00:16:38;;;;;;;11.13;9.07;;;;;;;16.49;100.00;101474.94;5076216;28;20037;-36
2023/05/22 00:19:04;;;;;;;12.73;9.30;;;;;;;16.52;100.00;101479.91;5076085;28;20058;-36
2023/05/22 00:21:33;;;;;;;;;;;;;;;16.59;100.00;101482.44;5077160;28;20032;-36
2023/05/22 00:23:59;;;;;;;10.23;9.07;;;;;;;16.34;100.00;101474.78;5076055;28;19951;-36
2023/05/22 00:26:25;;;;;;;;;;;;;;;16.45;100.00;101468.38;5077387;28;20064;-36
2023/05/22 00:28:50;;;;;;;11.52;9.40;;;;;;;16.32;100.00;101476.94;5076784;28;19912;-36
2023/05/22 00:31:15;;;;;;;;;;;;;;;16.42;100.00;101474.34;5076801;28;20028;-36
2023/05/22 00:33:41;;;;;;;12.40;9.30;;;;;;;16.31;100.00;101475.28;5076153;28;19947;-36
2023/05/22 00:36:06;;;;;;;;;;;;;;;16.32;100.00;101477.75;5076626;28;20770;-36
2023/05/22 00:38:33;;;;;;;11.30;8.43;;;;;;;16.17;100.00;101478.38;5076385;28;19935;-36
2023/05/22 00:41:00;;;;;;;11.60;9.68;;;;;;;16.09;100.00;101464.34;5075727;28;20021;-36
2023/05/22 00:43:26;;;;;;;11.30;9.60;;;;;;;16.09;100.00;101465.19;5075710;28;20115;-36
2023/05/22 00:45:52;;;;;;;;;;;;;;;16.19;100.00;101470.75;5076173;28;20108;-36
2023/05/22 00:48:18;;;;;;;11.90;9.23;;;;;;;16.09;100.00;101469.81;5076514;28;19908;-36
2023/05/22 00:50:43;;;;;;;;;;;;;;;16.14;100.00;101462.50;5076155;28;20036;-36
2023/05/22 00:53:09;;;;;;;10.30;9.30;;;;;;;15.99;100.00;101456.03;5075568;28;19920;-36
2023/05/22 00:55:35;;;;;;;;;;;;;;;16.10;100.00;101464.09;5076850;28;20111;-36
2023/05/22 00:58:06;;;;;;;12.27;9.50;;;;;;;16.03;100.00;101459.91;5075481;28;19997;-36
2023/05/22 01:00:34;;;;;;;13.68;9.93;;;;;;;15.96;100.00;101469.13;5076436;28;20615;-36
2023/05/22 01:03:00;;;;;;;14.80;10.20;;;;;;;15.92;100.00;101459.78;5075037;28;20032;-36
2023/05/22 01:05:25;;;;;;;;;;;;;;;16.08;100.00;101466.25;5076060;28;20163;-37
2023/05/22 01:07:52;;;;;;;11.60;9.95;;;;;;;15.98;100.00;101463.41;5075756;28;19908;-36
2023/05/22 01:10:18;;;;;;;11.90;9.43;;;;;;;16.01;100.00;101462.91;5075771;28;20032;-36
2023/05/22 01:12:52;;;;;;;12.40;9.65;;;;;;;15.96;100.00;101457.38;5075105;28;20063;-36
2023/05/22 01:15:25;;;;;;;11.45;9.90;;;;;;;15.96;100.00;101462.84;5075473;28;20064;-36
2023/05/22 01:18:18;;;;;;;11.90;10.18;;;;;;;16.01;100.00;101462.09;5075924;28;20408;-36
2023/05/22 01:20:53;;;;;;;12.88;10.77;;;;;;;15.95;100.00;101461.16;5075244;28;20105;-36
2023/05/22 01:24:10;;;;;;;16.33;11.20;;;;;;;16.08;100.00;101455.34;5074603;28;20039;-36
2023/05/22 01:26:48;;;;;;;14.63;11.27;;;;;;;15.93;100.00;101449.69;5013196;28;20433;-36
2023/05/22 01:29:34;;;;;;;11.82;10.15;;;;;;;16.01;100.00;101452.00;5073908;28;20033;-36
2023/05/22 01:32:01;;;;;;;13.77;11.35;;;;;;;15.92;100.00;101453.50;5074743;28;20028;-36
2023/05/22 01:34:29;;;;;;;12.70;10.48;;;;;;;15.87;100.00;101456.97;5074684;28;20111;-36
2023/05/22 01:36:56;;;;;;;14.77;10.82;;;;;;;15.77;100.00;101442.38;5074957;28;20032;-36
2023/05/22 01:39:23;;;;;;;12.82;10.85;;;;;;;15.82;100.00;101456.09;5074773;28;20052;-36
2023/05/22 01:41:49;;;;;;;14.00;10.70;;;;;;;15.87;100.00;101447.97;5074606;28;20071;-36
2023/05/22 01:44:14;;;;;;;;;;;;;;;15.96;100.00;101454.66;5075781;28;20060;-36
2023/05/22 01:46:40;;;;;;;13.82;10.60;;;;;;;15.87;100.00;101447.97;5074828;28;20019;-36
2023/05/22 01:49:05;;;;;;;;;;;;;;;15.97;100.00;101456.31;5075421;28;20032;-36
2023/05/22 01:51:56;;;;;;;15.65;11.05;;;;;;;15.86;100.00;101447.16;5074453;28;19991;-36
2023/05/22 01:54:30;;;;;;;10.93;9.40;;;;;;;15.78;100.00;101441.31;5074304;28;20481;-36
2023/05/22 01:57:02;;;;;;;14.93;10.65;;;;;;;15.70;100.00;101431.63;5074866;28;20051;-36
2023/05/22 01:59:36;;;;;;;13.45;10.98;;;;;;;15.77;100.00;101445.94;5074097;28;20522;-36
2023/05/22 02:02:06;;;;;;;17.15;10.95;;;;;;;15.75;100.00;101448.06;5074504;28;20032;-36
2023/05/22 02:04:35;;;;;;;13.32;11.48;;;;;;;15.69;100.00;101444.44;5074160;28;20468;-36
2023/05/22 02:07:02;;;;;;;14.25;11.93;;;;;;;15.67;100.00;101446.59;5074374;28;20477;-36
2023/05/22 02:09:30;;;;;;;13.45;12.00;;;;;;;15.64;100.00;101446.28;5074260;28;20085;-36
2023/05/22 02:11:58;;;;;;;13.60;11.38;;;;;;;15.65;100.00;101442.47;5073786;28;20461;-36
2023/05/22 02:14:24;;;;;;;14.00;12.13;;;;;;;15.60;100.00;101439.63;5073934;28;20123;-36
2023/05/22 02:16:50;;;;;;;14.82;12.38;;;;;;;15.49;100.00;101432.38;5074750;28;20377;-36
2023/05/22 02:19:15;;;;;;;;;;;;;;;15.71;100.00;101433.28;5074547;28;20029;-36
2023/05/22 02:21:40;;;;;;;15.85;11.90;;;;;;;15.63;100.00;101445.47;5074170;28;19947;-36
2023/05/22 02:24:05;;;;;;;;;;;;;;;15.71;100.00;101441.47;5074551;28;20074;-36
2023/05/22 02:26:31;;;;;;;14.43;12.38;;;;;;;15.59;100.00;101440.72;5073887;28;19958;-36
2023/05/22 02:28:56;;;;;;;;;;;;;;;15.70;100.00;101439.81;5073830;28;20507;-36
2023/05/22 02:31:22;;;;;;;14.60;12.27;;;;;;;15.49;100.00;101426.94;5074027;28;19965;-36
2023/05/22 02:33:47;;;;;;;;;;;;;;;15.66;100.00;101439.50;5074179;28;20107;-36
2023/05/22 02:36:13;;;;;;;14.13;12.30;;;;;;;15.54;100.00;101430.56;5074573;28;19912;-36
2023/05/22 02:38:39;;;;;;;14.63;13.13;;;;;;;15.40;100.00;101432.81;5073380;28;20020;-36
2023/05/22 02:41:04;;;;;;;;;;;;;;;15.59;100.00;101436.09;5074643;28;20028;-36
2023/05/22 02:43:30;;;;;;;14.10;12.25;;;;;;;15.51;100.00;101430.22;5073283;28;19912;-36
2023/05/22 02:45:55;;;;;;;;;;;;;;;15.60;100.00;101434.19;5074915;28;20029;-36
2023/05/22 02:48:21;;;;;;;14.00;12.50;;;;;;;15.49;100.00;101438.66;5074117;28;20268;-36
2023/05/22 02:50:47;;;;;;;;;;;;;;;15.59;100.00;101427.91;5074327;28;20093;-36
2023/05/22 02:53:14;;;;;;;16.45;13.27;;;;;;;15.40;100.00;101423.81;5073233;28;19955;-36
2023/05/22 02:55:40;;;;;;;14.93;13.27;;;;;;;15.40;100.00;101424.63;5074326;28;20032;-36
2023/05/22 02:58:10;;;;;;;16.08;13.70;;;;;;;15.43;100.00;101426.03;5073126;28;20036;-36
2023/05/22 03:00:36;;;;;;;18.63;13.75;;;;;;;15.31;100.00;101414.38;5073901;28;20080;-36
2023/05/22 03:03:02;;;;;;;18.15;13.40;;;;;;;15.26;100.00;101400.69;5074195;28;20047;-36
2023/05/22 03:05:27;;;;;;;;;;;;;;;15.46;100.00;101417.34;5074445;28;20461;-36
2023/05/22 03:07:53;;;;;;;13.83;12.30;;;;;;;15.24;100.00;101409.13;5073341;28;19908;-36
2023/05/22 03:10:18;;;;;;;16.42;13.48;;;;;;;15.30;100.00;101423.66;5073098;28;20267;-36
2023/05/22 03:12:44;;;;;;;;;;;;;;;15.39;100.00;101419.44;5073759;28;20025;-36
2023/05/22 03:15:10;;;;;;;15.50;13.57;;;;;;;15.22;100.00;101407.69;5073898;28;19935;-36
2023/05/22 03:17:35;;;;;;;16.30;14.07;;;;;;;15.13;100.00;101418.22;5072978;28;20275;-36
2023/05/22 03:20:01;;;;;;;;;;;;;;;15.28;100.00;101420.34;5073953;28;20033;-37
2023/05/22 03:22:26;;;;;;;17.98;13.85;;;;;;;15.11;100.00;101423.06;5073771;28;19912;-36
2023/05/22 03:24:52;;;;;;;15.27;13.73;;;;;;;15.04;100.00;101420.50;5073801;28;20056;-36
2023/05/22 03:27:18;;;;;;;;;;;;;;;15.15;100.00;101425.03;5073911;28;20441;-36
2023/05/22 03:29:43;;;;;;;14.50;12.70;;;;;;;14.93;100.00;101402.31;5073201;28;19963;-36
2023/05/22 03:32:09;;;;;;;15.02;13.43;;;;;;;15.00;100.00;101419.34;5073805;28;20428;-36
2023/05/22 03:34:34;;;;;;;;;;;;;;;15.05;100.00;101416.72;5073258;28;20025;-36
2023/05/22 03:37:00;;;;;;;14.70;13.20;;;;;;;14.87;100.00;101414.22;5072814;28;19912;-36
2023/05/22 03:39:25;;;;;;;15.65;13.65;;;;;;;14.83;100.00;101415.75;5072972;28;20028;-36
2023/05/22 03:41:50;;;;;;;17.80;14.68;;;;;;;14.79;100.00;101406.47;5073123;28;20430;-35
2023/05/22 03:44:16;;;;;;;;;;;;;;;14.88;100.00;101415.84;5073665;28;20028;-35
2023/05/22 03:46:41;;;;;;;16.00;14.17;;;;;;;14.69;100.00;101407.09;5074487;28;19912;-35
2023/05/22 03:49:06;;;;;;;16.65;14.30;;;;;;;14.66;100.00;101413.84;5076376;28;20270;-35
2023/05/22 03:51:31;;;;;;;;;;;;;;;14.76;100.00;101405.03;5077374;28;20071;-35
2023/05/22 03:53:57;;;;;;;17.30;12.43;;;;;;;14.57;100.00;101404.41;5076388;28;19908;-35
2023/05/22 03:56:22;;;;;;;16.25;14.13;;;;;;;14.60;100.00;101412.13;5076952;28;20715;-36
2023/05/22 03:58:48;;;;;;;;;;;;;;;14.66;100.00;101404.84;5077295;28;20431;-35
2023/05/22 04:01:15;;;;;;;21.38;13.55;;;;;;;14.52;100.00;101409.78;5076282;28;19917;-35
2023/05/22 04:03:41;;;;;;;17.98;14.60;;;;;;;14.51;100.00;101413.56;5076170;28;20025;-35
2023/05/22 04:06:06;;;;;;;;;;;;;;;14.60;100.00;101420.28;5076867;28;20106;-35
2023/05/22 04:08:32;;;;;;;16.95;13.90;;;;;;;14.48;100.00;101410.50;5076573;28;19909;-35
2023/05/22 04:10:57;;;;;;;18.15;14.60;;;;;;;14.41;100.00;101410.63;5076055;28;20035;-35
2023/05/22 04:13:22;;;;;;;;;;;;;;;14.51;100.00;101415.47;5076723;28;20099;-35
2023/05/22 04:15:48;;;;;;;17.90;13.88;;;;;;;14.36;100.00;101418.69;5076292;28;20340;-35
2023/05/22 04:18:14;;;;;;;;;;;;;;;14.49;100.00;101418.41;5076600;28;20081;-36
2023/05/22 04:20:40;;;;;;;17.15;14.27;;;;;;;14.33;100.00;101419.16;5076390;28;19916;-36
2023/05/22 04:23:06;;;;;;;18.85;15.07;;;;;;;14.25;100.00;101427.69;5076102;28;20393;-36
2023/05/22 04:25:33;;;;;;;20.65;15.85;;;;;;;14.21;100.00;101426.53;5076658;28;20052;-36
2023/05/22 04:28:01;;;;;;;18.02;16.13;;;;;;;14.19;100.00;101421.31;5075949;28;20432;-36
2023/05/22 04:30:27;;;;;;;18.27;15.38;;;;;;;14.24;100.00;101426.03;5076588;28;20044;-36
2023/05/22 04:32:52;;;;;;;;;;;;;;;14.37;100.00;101431.22;5076883;28;20020;-36
2023/05/22 04:35:18;;;;;;;22.63;16.73;;;;;;;14.30;100.00;101423.22;5076739;28;20367;-35
2023/05/22 04:37:46;;;;;;;20.58;16.63;;;;;;;14.28;100.00;101430.75;5075501;28;20343;-36
2023/05/22 04:40:14;;;;;;;24.00;16.63;;;;;;;14.30;100.00;101431.38;5075993;28;20073;-36
2023/05/22 04:42:39;;;;;;;19.85;17.08;;;;;;;14.22;100.00;101436.34;5075776;28;20024;-35
2023/05/22 04:45:05;;;;;;;;;;;;;;;14.35;100.00;101439.63;5076719;28;20456;-36
2023/05/22 04:47:30;;;;;;;21.48;16.55;;;;;;;14.22;100.00;101441.78;5076473;28;20000;-36
2023/05/22 04:49:59;;;;;;;23.27;16.25;;;;;;;14.22;100.00;101433.63;5075394;28;20035;-37
2023/05/22 04:52:25;;;;;;;20.90;17.55;;;;;;;14.15;100.00;101450.91;5075671;28;20483;-37
2023/05/22 04:54:51;;;;;;;;;;;;;;;14.35;100.00;101453.22;5075692;28;20480;-37
2023/05/22 04:57:17;;;;;;;20.63;15.85;;;;;;;14.28;100.00;101448.97;5075769;28;19908;-37
2023/05/22 04:59:44;;;;;;;21.75;16.30;;;;;;;14.27;100.00;101458.22;5075448;28;20186;-37
2023/05/22 05:02:10;;;;;;;24.75;16.48;;;;;;;14.27;100.00;101447.34;5075706;28;20024;-36
2023/05/22 05:04:35;;;;;;;;;;;;;;;14.43;100.00;101452.00;5075966;28;20376;-36
2023/05/22 05:07:01;;;;;;;22.92;15.65;;;;;;;14.37;100.00;101451.09;5075241;28;19931;-36
2023/05/22 05:09:26;;;;;;;22.95;15.57;;;;;;;14.37;100.00;101442.09;5075253;28;20028;-36
2023/05/22 05:11:52;;;;;;;24.65;17.15;;;;;;;14.35;100.00;101439.63;5075270;28;20028;-36
2023/05/22 05:14:18;;;;;;;;;;;;;;;14.54;100.00;101459.34;5075337;28;20025;-36
2023/05/22 05:16:43;;;;;;;22.98;15.45;;;;;;;14.43;100.00;101461.00;5075424;28;19908;-36
2023/05/22 05:19:09;;;;;;;;;;;;;;;14.60;100.00;101465.72;5075151;28;20460;-36
2023/05/22 05:21:34;;;;;;;22.38;15.90;;;;;;;14.51;100.00;101459.84;5074750;28;19912;-36
2023/05/22 05:24:00;;;;;;;;;;;;;;;14.63;100.00;101457.88;5075543;28;20056;-37
2023/05/22 05:26:26;;;;;;;25.92;16.85;;;;;;;14.51;100.00;101451.66;5075539;28;19927;-36
2023/05/22 05:28:51;;;;;;;26.55;15.70;;;;;;;14.59;100.00;101459.47;5075085;28;20097;-36
2023/05/22 05:31:19;;;;;;;24.17;17.27;;;;;;;14.60;100.00;101461.09;5074786;28;20068;-36
2023/05/22 05:33:45;;;;;;;21.48;15.70;;;;;;;14.53;100.00;101452.25;5074417;28;20111;-36
2023/05/22 05:36:10;;;;;;;;;;;;;;;14.75;100.00;101454.28;5075429;28;20104;-36
2023/05/22 05:38:36;;;;;;;24.73;14.07;;;;;;;14.70;100.00;101457.75;5074680;28;20348;-36
2023/05/22 05:41:01;;;;;;;;;;;;;;;14.83;100.00;101468.31;5075102;28;20060;-36
2023/05/22 05:43:27;;;;;;;21.37;14.90;;;;;;;14.78;100.00;101461.97;5074560;28;19912;-36
2023/05/22 05:45:52;;;;;;;24.92;15.35;;;;;;;14.80;100.00;101471.53;5074822;28;20270;-37
2023/05/22 05:48:17;;;;;;;;;;;;;;;14.95;100.00;101468.28;5075204;28;20480;-37
2023/05/22 05:50:43;;;;;;;23.70;16.20;;;;;;;14.81;100.00;101470.47;5074724;28;20426;-37
2023/05/22 05:53:08;;;;;;;26.85;17.60;;;;;;;14.86;100.00;101476.00;5075188;28;20270;-36
2023/05/22 05:55:33;;;;;;;27.08;17.30;;;;;;;14.84;100.00;101469.16;5074315;28;20457;-36
2023/05/22 05:57:59;;;;;;;;;;;;;;;15.05;100.00;101464.91;5074724;28;20141;-36
2023/05/22 06:00:24;;;;;;;25.65;17.85;;;;;;;14.93;100.00;101470.41;5074680;28;20355;-36
2023/05/22 06:02:50;;;;;;;26.95;17.25;;;;;;;15.06;100.00;101470.09;5074168;28;20455;-36
2023/05/22 06:05:17;;;;;;;;;;;;;;;15.24;100.00;101471.78;5074674;28;20077;-36
2023/05/22 06:07:43;;;;;;;22.13;14.98;;;;;;;15.18;100.00;101470.06;5074143;28;19959;-36
2023/05/22 06:10:10;;;;;;;21.48;15.68;;;;;;;15.25;100.00;101486.22;5073347;28;20036;-36
2023/05/22 06:12:36;;;;;;;23.13;15.75;;;;;;;15.13;100.00;101465.34;5073662;28;20484;-36
2023/05/22 06:15:06;;;;;;;;;;;;;;;15.48;100.00;101479.81;5074719;28;20028;-37
2023/05/22 06:17:31;;;;;;;19.35;14.38;;;;;;;15.44;100.00;101493.09;5074545;28;19909;-37
2023/05/22 06:19:57;;;;;;;;;;;;;;;15.56;100.00;101488.38;5073973;28;20032;-37
2023/05/22 06:22:24;;;;;;;19.40;14.30;;;;;;;15.47;100.00;101478.97;5073978;28;19912;-37
2023/05/22 06:24:53;;;;;;;19.77;14.70;;;;;;;15.48;100.00;101468.91;5073578;28;20266;-37
2023/05/22 06:27:22;;;;;;;22.77;16.70;;;;;;;15.58;100.00;101490.88;5073876;28;20033;-37
2023/05/22 06:29:49;;;;;;;18.10;14.30;;;;;;;15.62;100.00;101487.41;5074343;28;20031;-37
2023/05/22 06:32:14;;;;;;;19.65;15.57;;;;;;;15.63;100.00;101478.16;5074007;28;20031;-36
2023/05/22 06:34:39;;;;;;;;;;;;;;;15.82;100.00;101497.81;5074424;28;20028;-37
2023/05/22 06:37:05;;;;;;;19.42;14.80;;;;;;;15.78;100.00;101498.56;5074597;28;20323;-36
2023/05/22 06:39:31;;;;;;;;;;;;;;;15.92;100.00;101497.13;5073664;28;20032;-37
2023/05/22 06:41:56;;;;;;;23.02;15.50;;;;;;;15.89;100.00;101503.91;5073384;28;19919;-37
2023/05/22 06:44:21;;;;;;;;;;;;;;;16.01;100.00;101503.81;5074009;28;20063;-37
2023/05/22 06:46:47;;;;;;;24.42;17.75;;;;;;;15.88;100.00;101501.44;5073300;28;20002;-36
2023/05/22 06:49:12;;;;;;;;;;;;;;;16.06;100.00;101501.16;5074510;28;20028;-37
2023/05/22 06:51:37;;;;;;;19.67;16.03;;;;;;;15.98;100.00;101509.78;5073821;28;20369;-37
2023/05/22 06:54:05;;;;;;;;;;;;;;;16.10;100.00;101505.00;5073662;28;20307;-37
2023/05/22 06:56:31;;;;;;;24.45;16.20;;;;;;;15.95;100.00;101502.91;5073145;28;19939;-36
2023/05/22 06:58:57;;;;;;;;;;;;;;;16.16;100.00;101504.03;5073715;28;20024;-36
2023/05/22 07:01:22;;;;;;;23.73;17.10;;;;;;;16.11;100.00;101508.59;5074207;28;19912;-36
2023/05/22 07:03:48;;;;;;;22.45;16.10;;;;;;;16.15;100.00;101507.00;5073434;28;20095;-36
2023/05/22 07:06:14;;;;;;;;;;;;;;;16.29;100.00;101513.72;5074460;28;20028;-37
2023/05/22 07:08:39;;;;;;;20.52;16.60;;;;;;;16.13;100.00;101509.97;5074150;28;20291;-37
2023/05/22 07:11:06;;;;;;;;;;;;;;;16.31;100.00;101517.06;5073768;28;20128;-36
2023/05/22 07:13:31;;;;;;;24.33;16.20;;;;;;;16.11;100.00;101494.94;5073212;28;19916;-37
2023/05/22 07:15:56;;;;;;;;;;;;;;;16.38;100.00;101519.59;5072774;28;20028;-37
2023/05/22 07:18:22;;;;;;;24.90;15.47;;;;;;;16.39;100.00;101515.78;5073560;28;19908;-37
2023/05/22 07:20:47;;;;;;;;;;;;;;;16.52;100.00;101517.31;5074232;28;20286;-37
2023/05/22 07:23:13;;;;;;;23.95;16.35;;;;;;;16.44;100.00;101522.13;5077602;28;19912;-36
2023/05/22 07:25:38;;;;;;;;;;;;;;;16.57;100.00;101517.38;5077740;28;20031;-37
2023/05/22 07:28:07;;;;;;;19.95;15.88;;;;;;;16.49;100.00;101521.34;5077233;28;19974;-37
2023/05/22 07:30:36;;;;;;;23.27;17.85;;;;;;;16.43;100.00;101523.19;5077721;28;20123;-37
2023/05/22 07:33:01;;;;;;;23.75;17.95;;;;;;;16.50;100.00;101525.75;5077321;28;20035;-36
2023/05/22 07:35:27;;;;;;;;;;;;;;;16.61;100.00;101524.81;5077756;28;20466;-37
2023/05/22 07:37:52;;;;;;;25.90;18.40;;;;;;;16.51;100.00;101518.41;5077479;28;19919;-37
2023/05/22 07:40:17;;;;;;;;;;;;;;;16.63;100.00;101519.91;5077310;28;20306;-37
2023/05/22 07:42:43;;;;;;;26.20;18.23;;;;;;;16.59;100.00;101534.31;5076843;28;20372;-37
2023/05/22 07:45:08;;;;;;;;;;;;;;;16.75;100.00;101529.91;5076972;28;20262;-37
2023/05/22 07:47:33;;;;;;;24.95;19.42;;;;;;;16.64;100.00;101520.72;5076506;28;19946;-36
2023/05/22 07:49:59;;;;;;;;;;;;;;;16.80;100.00;101532.69;5077151;28;20036;-37
2023/05/22 07:52:24;;;;;;;23.45;18.63;;;;;;;16.71;100.00;101526.81;5077021;28;19920;-37
2023/05/22 07:54:50;;;;;;;;;;;;;;;16.93;100.00;101537.75;5076997;28;20372;-37
2023/05/22 07:57:15;;;;;;;22.17;17.50;;;;;;;16.95;100.00;101525.50;5076589;28;20073;-37
2023/05/22 07:59:42;;;;;;;;;;;;;;;17.14;100.00;101527.88;5077081;28;20340;-37
2023/05/22 08:02:08;;;;;;;22.20;17.67;;;;;;;17.18;100.00;101538.03;5077403;28;19912;-37
2023/05/22 08:04:34;;;;;;;;;;;;;;;17.36;100.00;101536.00;5076862;28;20484;-36
2023/05/22 08:07:00;;;;;;;21.98;18.40;;;;;;;17.24;100.00;101539.72;5076956;28;19916;-37
2023/05/22 08:09:25;;;;;;;22.70;18.75;;;;;;;17.20;100.00;101538.59;5074802;28;20035;-37
2023/05/22 08:11:51;;;;;;;;;;;;;;;17.44;100.00;101536.34;5076536;28;20025;-36
2023/05/22 08:14:16;;;;;;;21.40;18.13;;;;;;;17.38;100.00;101545.59;5076351;28;20001;-36
2023/05/22 08:16:41;;;;;;;;;;;;;;;17.53;100.00;101544.91;5077245;28;20340;-37
2023/05/22 08:19:07;;;;;;;21.27;18.93;;;;;;;17.43;100.00;101536.63;5075316;28;20261;-37
2023/05/22 08:21:33;;;;;;;;;;;;;;;17.65;100.00;101539.25;5076584;28;20378;-37
2023/05/22 08:23:59;;;;;;;23.13;20.02;;;;;;;17.59;100.00;101535.66;5076989;28;19912;-37
2023/05/22 08:26:25;;;;;;;24.98;19.75;;;;;;;17.66;100.00;101519.84;5076155;28;20035;-37
2023/05/22 08:28:51;;;;;;;;;;;;;;;17.92;100.00;101531.84;5076550;28;20108;-37
2023/05/22 08:31:16;;;;;;;20.48;18.25;;;;;;;17.92;100.00;101525.53;5075793;28;19920;-37
2023/05/22 08:33:41;;;;;;;;;;;;;;;18.09;100.00;101520.72;5075595;28;20029;-36
2023/05/22 08:36:07;;;;;;;20.67;18.42;;;;;;;18.00;100.00;101525.03;5076213;28;19960;-37
2023/05/22 08:38:32;;;;;;;;;;;;;;;18.26;100.00;101526.84;5076215;28;20079;-37
2023/05/22 08:40:58;;;;;;;22.63;17.98;;;;;;;18.37;100.00;101513.19;5076080;28;19913;-37
2023/05/22 08:43:23;;;;;;;21.63;18.63;;;;;;;18.59;100.00;101513.81;5075994;28;20071;-35
2023/05/22 08:45:56;;;;;;;;;;;;;;;18.77;100.00;101518.03;5076547;28;20055;-37
2023/05/22 08:48:22;;;;;;;22.67;19.58;;;;;;;18.64;100.00;101526.72;5076288;28;19909;-37
2023/05/22 08:50:56;;;;;;;28.75;20.42;;;;;;;18.74;100.00;101510.38;5076284;28;20025;-37
2023/05/22 08:53:26;;;;;;;26.67;20.50;;;;;;;18.93;100.00;101522.44;5075381;28;20042;-38
2023/05/22 08:55:53;;;;;;;21.75;18.73;;;;;;;18.95;100.00;101503.03;5075851;28;20025;-36
2023/05/22 08:58:19;;;;;;;24.63;19.85;;;;;;;19.03;100.00;101532.63;5075216;28;20479;-38
2023/05/22 09:00:44;;;;;;;27.80;20.25;;;;;;;19.03;100.00;101533.47;5075371;28;20044;-38
2023/05/22 09:03:12;;;;;;;;;;;;;;;19.28;100.00;101527.19;5075839;28;20085;-37
2023/05/22 09:05:39;;;;;;;23.15;19.02;;;;;;;19.45;100.00;101531.59;5075429;28;19999;-38
2023/05/22 09:08:07;;;;;;;25.77;20.02;;;;;;;19.42;100.00;101522.00;5075031;28;20028;-37
2023/05/22 09:10:33;;;;;;;22.55;18.10;;;;;;;19.57;100.00;101518.44;5075890;28;20115;-37
2023/05/22 09:13:06;;;;;;;22.13;18.08;;;;;;;19.72;100.00;101515.72;5075237;28;20033;-36
2023/05/22 09:15:32;;;;;;;25.20;19.73;;;;;;;19.85;100.00;101505.25;5076301;28;20372;-37
2023/05/22 09:18:01;;;;;;;23.98;18.10;;;;;;;20.14;100.00;101514.50;5075406;28;20154;-37
2023/05/22 09:20:27;;;;;;;24.13;19.23;;;;;;;20.12;100.00;101518.66;5074978;28;20052;-37
2023/05/22 09:22:52;;;;;;;21.17;17.95;;;;;;;20.17;100.00;101505.72;5074955;28;20082;-38
2023/05/22 09:25:19;;;;;;;21.98;18.17;;;;;;;20.22;100.00;101516.69;5075510;28;20066;-36
2023/05/22 09:27:46;;;;;;;25.80;19.38;;;;;;;20.30;100.00;101507.88;5074870;28;20033;-36
2023/05/22 09:30:15;;;;;;;19.55;17.25;;;;;;;20.49;100.00;101513.59;5074612;28;20107;-38
2023/05/22 09:32:41;;;;;;;27.55;17.73;;;;;;;20.54;100.00;101521.00;5074738;28;20025;-38
2023/05/22 09:35:07;;;;;;;21.52;17.27;;;;;;;20.44;100.00;101512.75;5075358;28;20016;-37
2023/05/22 09:37:37;;;;;;;22.42;17.10;;;;;;;20.66;100.00;101510.50;5074932;28;20465;-37
2023/05/22 09:40:08;;;;;;;35.05;17.70;;;;;;;20.71;100.00;101504.16;5074780;28;20369;-37
2023/05/22 09:42:34;;;;;;;20.92;16.20;;;;;;;20.95;99.72;101507.06;5074379;28;20029;-37
2023/05/22 09:45:07;;;;;;;19.55;16.58;;;;;;;20.95;98.81;101499.63;5073591;28;20080;-37
2023/05/22 09:47:33;;;;;;;20.17;14.73;;;;;;;21.12;97.32;101496.47;5074013;28;20449;-37
2023/05/22 09:50:00;;;;;;;19.80;14.25;;;;;;;21.30;95.81;101501.31;5074266;28;20112;-37
2023/05/22 09:52:27;;;;;;;17.80;14.43;;;;;;;21.43;94.15;101504.53;5074366;28;20473;-37
2023/05/22 09:54:55;;;;;;;17.10;13.77;;;;;;;21.57;94.70;101500.03;5074322;28;20025;-37
2023/05/22 09:57:25;;;;;;;20.90;15.52;;;;;;;21.74;94.09;101494.88;5074904;28;20029;-38
2023/05/22 09:59:53;;;;;;;19.23;15.73;;;;;;;21.78;92.10;101492.38;5073884;28;20072;-35
2023/05/22 10:02:21;;;;;;;19.00;15.15;;;;;;;21.92;92.78;101492.53;5074192;28;20028;-37
2023/05/22 10:04:51;;;;;;;18.15;15.27;;;;;;;22.19;91.40;101489.22;5074120;28;20085;-38
2023/05/22 10:07:31;;;;;;;17.90;14.95;;;;;;;22.11;92.62;101498.94;5074343;28;20058;-38
2023/05/22 10:10:03;;;;;;;18.45;15.30;;;;;;;22.18;91.26;101488.38;5074595;28;20024;-37
2023/05/22 10:12:32;;;;;;;19.13;15.65;;;;;;;22.33;89.33;101490.97;5074561;28;20116;-36
2023/05/22 10:14:59;;;;;;;19.20;16.75;;;;;;;22.43;89.95;101494.69;5073922;28;20020;-37
2023/05/22 10:17:25;;;;;;;22.05;17.02;;;;;;;22.49;88.96;101497.09;5074664;28;20070;-36
2023/05/22 10:19:52;;;;;;;22.77;17.95;;;;;;;22.46;89.00;101503.22;5073708;28;20028;-37
2023/05/22 10:22:21;;;;;;;22.60;19.15;;;;;;;22.33;89.37;101482.69;5074173;28;20068;-38
2023/05/22 10:24:50;;;;;;;23.55;18.83;;;;;;;22.55;89.42;101495.13;5073716;28;20029;-38
2023/05/22 10:27:16;;;;;;;24.88;19.67;;;;;;;22.65;87.44;101496.91;5073962;28;20457;-38
2023/05/22 10:29:49;;;;;;;19.92;17.75;;;;;;;22.77;87.02;101495.34;5073670;28;20077;-38
2023/05/22 10:32:27;;;;;;;20.67;17.80;;;;;;;22.97;86.29;101487.91;5074354;28;20032;-38
2023/05/22 10:35:16;;;;;;;18.67;16.70;;;;;;;23.03;86.14;101498.56;5073324;28;20074;-38
2023/05/22 10:37:52;;;;;;;19.15;16.60;;;;;;;23.15;85.30;101489.84;5073596;28;20031;-38
2023/05/22 10:40:31;;;;;;;19.57;17.47;;;;;;;23.29;84.23;101482.44;5073251;28;20025;-38
2023/05/22 10:43:02;;;;;;;21.35;17.85;;;;;;;23.29;84.26;101476.13;5074134;28;20607;-38
2023/05/22 10:45:28;;;;;;;18.38;16.55;;;;;;;23.37;82.70;101490.03;5073449;28;20029;-38
2023/05/22 10:48:21;;;;;;;19.13;16.42;;;;;;;23.29;83.65;101482.44;5074136;28;20025;-38
2023/05/22 10:50:53;;;;;;;17.63;15.80;;;;;;;23.09;82.39;101474.50;5070920;28;20437;-38
2023/05/22 10:53:25;;;;;;;20.20;16.52;;;;;;;23.12;83.48;101479.41;5074256;28;20067;-38
2023/05/22 10:55:52;;;;;;;18.15;16.23;;;;;;;23.15;82.54;101475.25;5073229;28;20040;-38
2023/05/22 10:58:28;;;;;;;18.08;16.17;;;;;;;23.20;82.69;101475.97;5073366;28;20035;-38
2023/05/22 11:01:18;;;;;;;18.67;16.67;;;;;;;23.15;83.42;101469.72;5073575;28;20063;-38
2023/05/22 11:04:10;;;;;;;21.17;17.30;;;;;;;23.17;83.47;101473.81;5073918;28;20354;-38
2023/05/22 11:06:47;;;;;;;17.88;15.98;;;;;;;23.46;82.68;101467.25;5074237;28;20090;-38
2023/05/22 11:09:30;;;;;;;19.73;16.65;;;;;;;23.57;82.67;101477.84;5073635;28;20028;-38
2023/05/22 11:12:21;;;;;;;18.23;16.33;;;;;;;23.68;81.76;101472.16;5073046;28;20128;-37
2023/05/22 11:14:50;;;;;;;17.83;15.30;;;;;;;23.69;79.23;101463.56;5073766;28;20477;-38
2023/05/22 11:17:24;;;;;;;21.83;15.98;;;;;;;23.64;79.89;101458.13;5074027;28;20429;-38
2023/05/22 11:20:06;;;;;;;19.75;17.65;;;;;;;23.63;80.47;101465.59;5073331;28;20535;-38
2023/05/22 11:22:33;;;;;;;17.67;15.88;;;;;;;23.41;79.72;101470.09;5073964;28;20420;-38
2023/05/22 11:25:01;;;;;;;20.00;16.33;;;;;;;23.51;79.41;101464.41;5073094;28;20199;-38
2023/05/22 11:27:27;;;;;;;15.63;13.98;;;;;;;23.58;78.48;101464.84;5073929;28;20090;-38